createdAt,value
2024-02-27T00:01:24.982Z,6.10
2024-02-27T00:03:53.201Z,6.00
2024-02-27T00:06:21.347Z,6.10
2024-02-27T00:08:49.545Z,6.00
2024-02-27T00:11:19.687Z,6.00
2024-02-27T00:13:47.942Z,6.00
2024-02-27T00:16:17.372Z,6.00
2024-02-27T00:18:45.598Z,6.00
2024-02-27T00:21:13.810Z,6.10
2024-02-27T00:23:41.989Z,6.10
2024-02-27T00:26:10.164Z,6.00
2024-02-27T00:28:39.594Z,6.00
2024-02-27T00:31:07.832Z,6.00
2024-02-27T00:33:36.103Z,6.00
2024-02-27T00:36:04.456Z,6.00
2024-02-27T00:38:32.536Z,6.00
2024-02-27T00:41:00.774Z,5.90
2024-02-27T00:43:28.885Z,6.00
2024-02-27T00:45:58.250Z,5.90
2024-02-27T00:48:26.548Z,6.00
2024-02-27T00:50:54.703Z,6.00
2024-02-27T00:53:23.067Z,6.00
2024-02-27T00:55:51.283Z,6.00
2024-02-27T00:58:19.301Z,5.90
2024-02-27T01:00:47.619Z,5.90
2024-02-27T01:03:17.118Z,5.90
2024-02-27T01:05:45.273Z,5.90
2024-02-27T01:08:13.492Z,5.90
2024-02-27T01:10:41.584Z,5.90
2024-02-27T01:13:09.674Z,5.90
2024-02-27T01:15:37.910Z,5.90
2024-02-27T01:18:06.568Z,5.80
2024-02-27T01:20:36.167Z,5.80
2024-02-27T01:23:04.688Z,5.80
2024-02-27T01:25:32.764Z,5.80
2024-02-27T01:28:00.803Z,5.80
2024-02-27T01:30:28.795Z,5.80
2024-02-27T01:32:57.050Z,5.80
2024-02-27T01:35:25.386Z,5.80
2024-02-27T01:37:55.007Z,5.80
2024-02-27T01:40:23.048Z,5.70
2024-02-27T01:42:51.103Z,5.70
2024-02-27T01:45:23.362Z,5.70
2024-02-27T01:47:52.186Z,5.80
2024-02-27T01:50:21.187Z,5.80
2024-02-27T01:52:49.355Z,5.70
2024-02-27T01:55:20.086Z,5.70
2024-02-27T01:57:49.995Z,5.80
2024-02-27T02:00:19.890Z,5.70
2024-02-27T02:02:48.076Z,5.70
2024-02-27T02:05:16.130Z,5.70
2024-02-27T02:07:44.933Z,5.70
2024-02-27T02:10:13.666Z,5.70
2024-02-27T02:12:43.526Z,5.70
2024-02-27T02:15:11.768Z,5.70
2024-02-27T02:17:39.860Z,5.60
2024-02-27T02:20:09.650Z,5.60
2024-02-27T02:22:39.080Z,5.70
2024-02-27T02:25:12.566Z,5.70
2024-02-27T02:27:43.931Z,5.60
2024-02-27T02:30:12.780Z,5.60
2024-02-27T02:32:48.927Z,5.60
2024-02-27T02:35:17.421Z,5.60
2024-02-27T02:37:48.537Z,5.60
2024-02-27T02:40:17.457Z,5.50
2024-02-27T02:42:46.133Z,5.50
2024-02-27T02:45:14.885Z,5.50
2024-02-27T02:47:43.191Z,5.50
2024-02-27T02:50:12.956Z,5.50
2024-02-27T02:52:41.445Z,5.50
2024-02-27T02:55:11.072Z,5.50
2024-02-27T02:57:39.593Z,5.50
2024-02-27T03:00:09.257Z,5.40
2024-02-27T03:02:37.497Z,5.50
2024-02-27T03:05:06.404Z,5.40
2024-02-27T03:07:34.947Z,5.50
2024-02-27T03:10:04.524Z,5.50
2024-02-27T03:12:33.995Z,5.40
2024-02-27T03:15:02.236Z,5.40
2024-02-27T03:17:30.337Z,5.40
2024-02-27T03:19:58.573Z,5.40
2024-02-27T03:22:26.751Z,5.40
2024-02-27T03:24:54.775Z,5.40
2024-02-27T03:27:22.885Z,5.40
2024-02-27T03:29:52.870Z,5.40
2024-02-27T03:32:22.731Z,5.40
2024-02-27T03:34:51.010Z,5.40
2024-02-27T03:37:19.180Z,5.40
2024-02-27T03:39:47.245Z,5.30
2024-02-27T03:42:15.315Z,5.30
2024-02-27T03:44:46.796Z,5.30
2024-02-27T03:47:16.889Z,5.40
2024-02-27T03:49:45.239Z,5.30
2024-02-27T03:52:13.629Z,5.40
2024-02-27T03:54:41.785Z,5.30
2024-02-27T03:57:11.373Z,5.30
2024-02-27T03:59:39.678Z,5.30
2024-02-27T04:02:08.311Z,5.30
2024-02-27T04:04:37.766Z,5.40
2024-02-27T04:07:06.139Z,5.40
2024-02-27T04:09:34.293Z,5.30
2024-02-27T04:12:07.640Z,5.30
2024-02-27T04:14:35.693Z,5.30
2024-02-27T04:17:03.810Z,5.30
2024-02-27T04:19:32.006Z,5.30
2024-02-27T04:22:01.539Z,5.20
2024-02-27T04:24:29.828Z,5.20
2024-02-27T04:26:57.982Z,5.10
2024-02-27T04:29:26.069Z,5.10
2024-02-27T04:31:54.149Z,5.10
2024-02-27T04:34:22.330Z,5.20
2024-02-27T04:36:50.404Z,5.20
2024-02-27T04:39:20.030Z,5.10
2024-02-27T04:41:48.488Z,5.10
2024-02-27T04:44:16.621Z,5.10
2024-02-27T04:46:44.666Z,5.10
2024-02-27T04:49:12.799Z,5.10
2024-02-27T04:51:41.641Z,5.10
2024-02-27T04:54:09.687Z,5.10
2024-02-27T04:56:42.918Z,5.10
2024-02-27T04:59:11.132Z,5.10
2024-02-27T05:01:39.778Z,5.10
2024-02-27T05:04:07.879Z,5.10
2024-02-27T05:06:36.031Z,5.00
2024-02-27T05:09:05.441Z,5.00
2024-02-27T05:11:33.539Z,4.90
2024-02-27T05:14:03.227Z,5.00
2024-02-27T05:16:31.531Z,4.90
2024-02-27T05:18:59.749Z,5.00
2024-02-27T05:21:29.369Z,4.90
2024-02-27T05:23:57.572Z,5.00
2024-02-27T05:26:26.008Z,4.90
2024-02-27T05:28:54.103Z,4.90
2024-02-27T05:31:26.059Z,5.00
2024-02-27T05:33:54.579Z,4.80
2024-02-27T05:36:23.324Z,4.90
2024-02-27T05:38:52.431Z,4.80
2024-02-27T05:41:20.564Z,4.80
2024-02-27T05:43:48.830Z,4.90
2024-02-27T05:46:17.261Z,4.80
2024-02-27T05:48:46.809Z,4.80
2024-02-27T05:51:15.023Z,4.70
2024-02-27T05:53:44.151Z,4.80
2024-02-27T05:56:12.213Z,4.80
2024-02-27T05:58:40.228Z,4.80
2024-02-27T06:01:08.632Z,4.70
2024-02-27T06:03:37.212Z,4.80
2024-02-27T06:06:07.949Z,4.80
2024-02-27T06:08:36.103Z,4.80
2024-02-27T06:11:04.221Z,4.80
2024-02-27T06:13:32.334Z,4.80
2024-02-27T06:16:02.295Z,4.70
2024-02-27T06:18:30.442Z,4.70
2024-02-27T06:21:16.084Z,4.80
2024-02-27T06:23:46.224Z,4.70
2024-02-27T06:26:15.025Z,4.60
2024-02-27T06:28:44.069Z,4.70
2024-02-27T06:31:12.488Z,4.60
2024-02-27T06:33:40.815Z,4.70
2024-02-27T06:36:09.389Z,4.60
2024-02-27T06:38:37.480Z,4.60
2024-02-27T06:41:07.026Z,4.50
2024-02-27T06:43:35.889Z,4.40
2024-02-27T06:46:04.577Z,4.30
2024-02-27T06:48:32.786Z,4.30
2024-02-27T06:51:01.573Z,4.30
2024-02-27T06:53:29.717Z,4.20
2024-02-27T06:55:57.719Z,4.20
2024-02-27T06:58:27.153Z,4.20
2024-02-27T07:00:55.317Z,4.30
2024-02-27T07:03:23.963Z,4.20
2024-02-27T07:05:53.920Z,4.30
2024-02-27T07:08:22.496Z,4.10
2024-02-27T07:10:50.630Z,4.20
2024-02-27T07:13:19.437Z,4.10
2024-02-27T07:15:49.286Z,4.20
2024-02-27T07:18:17.944Z,4.10
2024-02-27T07:20:46.562Z,4.00
2024-02-27T07:23:15.163Z,4.30
2024-02-27T07:25:43.374Z,4.20
2024-02-27T07:28:17.281Z,4.20
2024-02-27T07:30:53.526Z,4.20
2024-02-27T07:33:21.856Z,4.10
2024-02-27T07:35:51.125Z,4.20
2024-02-27T07:38:19.447Z,4.20
2024-02-27T07:40:47.554Z,4.10
2024-02-27T07:43:16.753Z,4.10
2024-02-27T07:45:45.153Z,4.20
2024-02-27T07:48:14.752Z,4.20
2024-02-27T07:50:42.893Z,4.20
2024-02-27T07:53:15.430Z,4.30
2024-02-27T07:55:43.515Z,4.20
2024-02-27T07:58:12.331Z,4.30
2024-02-27T08:00:40.513Z,4.30
2024-02-27T08:03:09.108Z,4.30
2024-02-27T08:05:38.666Z,4.20
2024-02-27T08:08:07.727Z,4.20
2024-02-27T08:10:35.959Z,4.00
2024-02-27T08:13:05.281Z,3.90
2024-02-27T08:15:33.673Z,3.90
2024-02-27T08:18:01.956Z,3.90
2024-02-27T08:20:30.108Z,3.80
2024-02-27T08:23:00.584Z,3.80
2024-02-27T08:25:29.703Z,3.80
2024-02-27T08:27:57.781Z,3.70
2024-02-27T08:30:26.638Z,3.90
2024-02-27T08:32:56.896Z,4.10
2024-02-27T08:35:25.208Z,4.00
2024-02-27T08:37:53.593Z,4.10
2024-02-27T08:40:23.027Z,4.20
2024-02-27T08:42:51.862Z,4.20
2024-02-27T08:45:20.561Z,4.10
2024-02-27T08:47:48.740Z,4.20
2024-02-27T08:50:16.854Z,4.10
2024-02-27T08:52:44.976Z,4.10
2024-02-27T08:55:13.082Z,4.10
2024-02-27T08:57:42.542Z,4.20
2024-02-27T09:00:13.702Z,4.20
2024-02-27T09:02:41.847Z,4.10
2024-02-27T09:05:10.520Z,4.20
2024-02-27T09:07:41.199Z,4.10
2024-02-27T09:10:10.791Z,4.10
2024-02-27T09:12:40.808Z,4.10
2024-02-27T09:15:12.591Z,4.10
2024-02-27T09:17:40.877Z,4.20
2024-02-27T09:20:11.089Z,4.30
2024-02-27T09:22:39.731Z,4.40
2024-02-27T09:25:08.548Z,4.40
2024-02-27T09:27:36.911Z,4.50
2024-02-27T09:30:06.002Z,4.40
2024-02-27T09:32:38.689Z,4.40
2024-02-27T09:35:08.616Z,4.50
2024-02-27T09:37:38.618Z,4.60
2024-02-27T09:40:08.198Z,4.70
2024-02-27T09:42:38.775Z,4.80
2024-02-27T09:45:09.044Z,4.80
2024-02-27T09:47:46.842Z,4.90
2024-02-27T09:50:19.401Z,4.90
2024-02-27T09:52:50.805Z,4.80
2024-02-27T09:55:20.584Z,4.90
2024-02-27T09:57:50.238Z,4.90
2024-02-27T10:00:19.753Z,5.00
2024-02-27T10:02:51.606Z,5.10
2024-02-27T10:05:21.661Z,5.30
2024-02-27T10:07:51.328Z,5.20
2024-02-27T10:10:20.194Z,5.10
2024-02-27T10:12:48.609Z,5.10
2024-02-27T10:15:16.854Z,5.30
2024-02-27T10:17:46.963Z,5.40
2024-02-27T10:20:21.057Z,5.50
2024-02-27T10:22:49.647Z,5.30
2024-02-27T10:25:20.043Z,5.40
2024-02-27T10:27:48.142Z,5.40
2024-02-27T10:30:16.847Z,5.50
2024-02-27T10:32:45.903Z,5.50
2024-02-27T10:35:15.730Z,5.40
2024-02-27T10:37:46.398Z,5.60
2024-02-27T10:40:14.696Z,5.70
2024-02-27T10:42:44.221Z,5.60
2024-02-27T10:45:13.437Z,5.80
2024-02-27T10:47:47.273Z,5.90
2024-02-27T10:50:17.680Z,5.90
2024-02-27T10:52:48.390Z,5.90
2024-02-27T10:55:20.161Z,5.50
2024-02-27T10:57:50.858Z,5.60
2024-02-27T11:00:20.123Z,5.70
2024-02-27T11:02:51.166Z,5.80
2024-02-27T11:05:21.242Z,5.80
2024-02-27T11:07:51.914Z,6.20
2024-02-27T11:10:20.670Z,6.30
2024-02-27T11:12:50.674Z,6.20
2024-02-27T11:15:21.138Z,5.90
2024-02-27T11:17:55.903Z,6.10
2024-02-27T11:20:24.439Z,6.00
2024-02-27T11:22:54.325Z,6.10
2024-02-27T11:25:23.504Z,6.30
2024-02-27T11:27:55.666Z,6.40
2024-02-27T11:30:26.008Z,6.40
2024-02-27T11:32:54.390Z,6.40
2024-02-27T11:35:24.000Z,6.20
2024-02-27T11:37:54.604Z,6.20
2024-02-27T11:40:47.274Z,6.00
2024-02-27T11:43:16.134Z,6.00
2024-02-27T11:45:44.422Z,6.20
2024-02-27T11:48:12.722Z,6.60
2024-02-27T11:50:50.019Z,6.40
2024-02-27T11:53:35.410Z,6.20
2024-02-27T11:56:04.113Z,6.30
2024-02-27T11:58:32.133Z,6.30
2024-02-27T12:01:00.779Z,6.70
2024-02-27T12:03:28.893Z,7.00
2024-02-27T12:06:05.383Z,7.00
2024-02-27T12:08:36.098Z,7.30
2024-02-27T12:11:04.389Z,7.10
2024-02-27T12:13:33.398Z,7.00
2024-02-27T12:16:02.113Z,7.00
2024-02-27T12:18:31.348Z,6.90
2024-02-27T12:21:01.746Z,7.00
2024-02-27T12:23:30.974Z,6.80
2024-02-27T12:26:01.577Z,6.80
2024-02-27T12:28:31.304Z,6.80
2024-02-27T12:31:00.353Z,6.80
2024-02-27T12:33:28.749Z,7.00
2024-02-27T12:35:56.923Z,7.10
2024-02-27T12:38:24.975Z,6.90
2024-02-27T12:40:53.058Z,6.70
2024-02-27T12:43:22.891Z,6.70
2024-02-27T12:45:53.638Z,6.70
2024-02-27T12:48:22.061Z,6.60
2024-02-27T12:50:50.271Z,6.70
2024-02-27T12:53:18.406Z,6.80
2024-02-27T12:55:47.579Z,6.60
2024-02-27T12:58:25.961Z,6.50
2024-02-27T13:00:56.695Z,6.70
2024-02-27T13:03:27.139Z,6.70
2024-02-27T13:05:55.481Z,6.70
2024-02-27T13:08:23.784Z,6.60
2024-02-27T13:13:22.376Z,6.80
2024-02-27T13:15:52.588Z,7.00
2024-02-27T13:18:20.868Z,6.90
2024-02-27T13:20:49.048Z,7.10
2024-02-27T13:23:24.976Z,7.00
2024-02-27T13:25:57.225Z,6.90
2024-02-27T13:28:27.499Z,6.70
2024-02-27T13:30:57.182Z,6.80
2024-02-27T13:33:26.246Z,6.80
2024-02-27T13:35:54.804Z,6.80
2024-02-27T13:38:22.847Z,6.70
2024-02-27T13:40:51.023Z,6.80
2024-02-27T13:43:19.131Z,6.80
2024-02-27T13:45:47.338Z,6.70
2024-02-27T13:48:17.185Z,6.90
2024-02-27T13:50:45.263Z,6.80
2024-02-27T13:53:15.142Z,6.90
2024-02-27T13:55:43.428Z,7.00
2024-02-27T13:58:11.573Z,7.00
2024-02-27T14:00:39.858Z,6.90
2024-02-27T14:03:10.764Z,6.80
2024-02-27T14:05:40.593Z,6.60
2024-02-27T14:08:09.361Z,6.60
2024-02-27T14:10:39.288Z,6.70
2024-02-27T14:13:07.729Z,6.70
2024-02-27T14:15:36.050Z,6.80
2024-02-27T14:18:04.446Z,6.90
2024-02-27T14:20:32.937Z,6.80
2024-02-27T14:23:02.395Z,6.80
2024-02-27T14:25:30.441Z,6.90
2024-02-27T14:27:58.996Z,6.90
2024-02-27T14:30:27.035Z,6.90
2024-02-27T14:32:55.621Z,6.90
2024-02-27T14:35:23.948Z,6.90
2024-02-27T14:37:52.045Z,6.90
2024-02-27T14:40:21.513Z,6.80
2024-02-27T14:42:52.772Z,6.70
2024-02-27T14:45:21.474Z,6.80
2024-02-27T14:47:49.611Z,6.80
2024-02-27T14:50:18.083Z,7.00
2024-02-27T14:52:46.141Z,6.90
2024-02-27T14:55:14.362Z,6.90
2024-02-27T14:57:43.800Z,7.00
2024-02-27T15:00:13.020Z,7.00
2024-02-27T15:02:41.863Z,7.10
2024-02-27T15:05:10.388Z,7.00
2024-02-27T15:07:38.850Z,6.90
2024-02-27T15:10:07.989Z,6.90
2024-02-27T15:12:36.146Z,6.90
2024-02-27T15:15:06.429Z,6.90
2024-02-27T15:17:34.711Z,7.00
2024-02-27T15:20:04.194Z,7.00
2024-02-27T15:22:32.594Z,7.10
2024-02-27T15:25:00.741Z,7.10
2024-02-27T15:27:28.852Z,7.00
2024-02-27T15:29:56.917Z,7.00
2024-02-27T15:32:27.463Z,7.00
2024-02-27T15:34:56.443Z,6.90
2024-02-27T15:37:24.702Z,7.00
2024-02-27T15:39:52.798Z,6.90
2024-02-27T15:42:20.875Z,6.90
2024-02-27T15:44:48.953Z,7.00
2024-02-27T15:47:17.035Z,6.90
2024-02-27T15:49:46.610Z,6.90
2024-02-27T15:52:14.745Z,7.00
2024-02-27T15:54:42.867Z,6.90
2024-02-27T15:57:10.949Z,6.90
2024-02-27T15:59:39.034Z,6.80
2024-02-27T16:02:07.637Z,6.80
2024-02-27T16:04:42.095Z,6.80
2024-02-27T16:07:15.181Z,6.70
2024-02-27T16:09:43.977Z,6.60
2024-02-27T16:12:19.725Z,6.70
2024-02-27T16:14:51.309Z,6.70
2024-02-27T16:17:19.452Z,6.70
2024-02-27T16:19:49.188Z,6.60
2024-02-27T16:22:19.658Z,6.60
2024-02-27T16:24:48.512Z,6.60
2024-02-27T16:27:17.265Z,6.60
2024-02-27T16:29:46.789Z,6.60
2024-02-27T16:32:14.924Z,6.50
2024-02-27T16:34:43.168Z,6.50
2024-02-27T16:37:12.373Z,6.50
2024-02-27T16:39:41.814Z,6.40
2024-02-27T16:42:10.677Z,6.40
2024-02-27T16:44:39.326Z,6.30
2024-02-27T16:47:07.428Z,6.30
2024-02-27T16:49:35.757Z,6.30
2024-02-27T16:52:03.996Z,6.30
2024-02-27T16:54:32.084Z,6.30
2024-02-27T16:57:01.520Z,6.20
2024-02-27T16:59:29.570Z,6.20
2024-02-27T17:01:57.614Z,6.10
2024-02-27T17:04:25.807Z,6.10
2024-02-27T17:06:54.033Z,6.10
2024-02-27T17:09:22.708Z,6.10
2024-02-27T17:11:50.941Z,6.00
2024-02-27T17:14:20.466Z,6.00
2024-02-27T17:16:48.511Z,6.00
2024-02-27T17:19:16.783Z,5.90
2024-02-27T17:21:45.045Z,5.90
2024-02-27T17:24:13.242Z,5.90
2024-02-27T17:26:41.347Z,5.90
2024-02-27T17:29:09.435Z,5.80
2024-02-27T17:31:38.935Z,5.70
2024-02-27T17:34:07.580Z,5.70
2024-02-27T17:36:39.373Z,5.70
2024-02-27T17:39:09.466Z,5.70
2024-02-27T17:41:37.583Z,5.60
2024-02-27T17:44:05.892Z,5.40
2024-02-27T17:46:35.607Z,5.20
2024-02-27T17:49:05.288Z,5.10
2024-02-27T17:51:33.510Z,5.00
2024-02-27T17:54:01.551Z,5.10
2024-02-27T17:56:29.811Z,5.10
2024-02-27T17:58:57.814Z,5.10
2024-02-27T18:01:25.902Z,5.10
2024-02-27T18:03:54.147Z,5.00
2024-02-27T18:06:23.667Z,4.90
2024-02-27T18:08:51.750Z,5.00
2024-02-27T18:11:19.849Z,5.00
2024-02-27T18:13:47.892Z,4.90
2024-02-27T18:16:16.246Z,4.90
2024-02-27T18:18:44.850Z,4.90
2024-02-27T18:21:13.957Z,4.80
2024-02-27T18:23:43.708Z,4.80
2024-02-27T18:26:13.201Z,4.70
2024-02-27T18:28:41.275Z,4.70
2024-02-27T18:31:10.360Z,4.50
2024-02-27T18:33:38.463Z,4.60
2024-02-27T18:36:07.061Z,4.50
2024-02-27T18:38:37.022Z,4.40
2024-02-27T18:41:06.704Z,4.40
2024-02-27T18:43:34.825Z,4.40
2024-02-27T18:46:02.887Z,4.30
2024-02-27T18:48:34.554Z,4.30
2024-02-27T18:51:03.829Z,4.30
2024-02-27T18:53:32.612Z,4.30
2024-02-27T18:56:00.753Z,4.20
2024-02-27T18:58:30.232Z,4.10
2024-02-27T19:00:59.049Z,4.10
2024-02-27T19:03:27.462Z,4.10
2024-02-27T19:05:55.712Z,4.10
2024-02-27T19:08:23.832Z,4.00
2024-02-27T19:10:52.208Z,4.10
2024-02-27T19:13:20.630Z,3.90
2024-02-27T19:15:50.305Z,4.00
2024-02-27T19:18:19.052Z,4.00
2024-02-27T19:20:47.555Z,3.90
2024-02-27T19:23:17.630Z,4.00
2024-02-27T19:25:45.679Z,3.90
2024-02-27T19:28:13.759Z,3.80
2024-02-27T19:30:42.259Z,3.70
2024-02-27T19:33:12.702Z,3.70
2024-02-27T19:35:40.805Z,3.60
2024-02-27T19:38:14.034Z,3.50
2024-02-27T19:40:46.915Z,3.50
2024-02-27T19:43:16.076Z,3.40
2024-02-27T19:45:44.656Z,3.30
2024-02-27T19:48:14.390Z,3.30
2024-02-27T19:50:42.522Z,3.30
2024-02-27T19:53:10.648Z,3.20
2024-02-27T19:55:39.100Z,3.30
2024-02-27T19:58:07.254Z,3.30
2024-02-27T20:00:37.796Z,3.30
2024-02-27T20:03:06.872Z,3.30
2024-02-27T20:05:37.645Z,3.20
2024-02-27T20:08:06.384Z,3.10
2024-02-27T20:10:34.882Z,3.10
2024-02-27T20:13:03.152Z,3.10
2024-02-27T20:15:31.800Z,3.10
2024-02-27T20:18:01.142Z,3.00
2024-02-27T20:20:30.344Z,2.90
2024-02-27T20:22:59.825Z,3.10
2024-02-27T20:25:27.833Z,3.00
2024-02-27T20:27:56.627Z,3.00
2024-02-27T20:30:26.632Z,3.00
2024-02-27T20:32:55.248Z,2.90
2024-02-27T20:35:23.386Z,2.80
2024-02-27T20:37:52.455Z,2.80
2024-02-27T20:40:23.794Z,2.80
2024-02-27T20:42:52.002Z,2.70
2024-02-27T20:45:21.435Z,2.70
2024-02-27T20:47:49.580Z,2.60
2024-02-27T20:50:17.609Z,2.50
2024-02-27T20:52:45.694Z,2.50
2024-02-27T20:55:15.491Z,2.50
2024-02-27T20:57:44.994Z,2.40
2024-02-27T21:00:13.879Z,2.40
2024-02-27T21:02:41.916Z,2.40
2024-02-27T21:05:10.280Z,2.50
2024-02-27T21:07:38.381Z,2.40
2024-02-27T21:10:07.547Z,2.40
2024-02-27T21:12:35.746Z,2.30
2024-02-27T21:15:05.823Z,2.30
2024-02-27T21:17:34.012Z,2.20
2024-02-27T21:20:02.532Z,2.20
2024-02-27T21:22:30.635Z,2.20
2024-02-27T21:24:58.706Z,2.20
2024-02-27T21:27:26.953Z,2.20
2024-02-27T21:29:55.061Z,2.10
2024-02-27T21:32:24.523Z,2.10
2024-02-27T21:34:52.621Z,2.00
2024-02-27T21:37:20.646Z,2.00
2024-02-27T21:39:51.843Z,2.00
2024-02-27T21:42:21.796Z,1.90
2024-02-27T21:44:50.093Z,1.90
2024-02-27T21:47:18.248Z,1.90
2024-02-27T21:49:47.711Z,1.90
2024-02-27T21:52:16.320Z,1.90
2024-02-27T21:54:45.101Z,1.90
2024-02-27T21:57:13.218Z,1.80
2024-02-27T21:59:43.157Z,1.80
2024-02-27T22:02:11.724Z,1.70
2024-02-27T22:04:40.362Z,1.70
2024-02-27T22:07:09.948Z,1.80
2024-02-27T22:09:38.145Z,1.90
2024-02-27T22:12:06.759Z,1.90
2024-02-27T22:14:34.850Z,1.90
2024-02-27T22:17:02.945Z,1.90
2024-02-27T22:19:31.277Z,1.80
2024-02-27T22:21:59.367Z,1.70
2024-02-27T22:24:28.825Z,1.70
2024-02-27T22:26:56.990Z,1.70
2024-02-27T22:29:25.074Z,1.70
2024-02-27T22:31:54.429Z,1.60
2024-02-27T22:34:23.128Z,1.60
2024-02-27T22:36:51.416Z,1.70
2024-02-27T22:39:19.633Z,1.70
2024-02-27T22:41:49.070Z,1.70
2024-02-27T22:44:17.110Z,1.60
2024-02-27T22:46:45.224Z,1.50
2024-02-27T22:49:13.371Z,1.50
2024-02-27T22:51:41.452Z,1.50
2024-02-27T22:54:09.661Z,1.50
2024-02-27T22:56:37.750Z,1.40
2024-02-27T22:59:07.409Z,1.40
2024-02-27T23:01:35.832Z,1.40
2024-02-27T23:04:04.007Z,1.30
2024-02-27T23:06:32.185Z,1.30
2024-02-27T23:09:00.287Z,1.30
2024-02-27T23:11:28.396Z,1.30
2024-02-27T23:13:56.533Z,1.30
2024-02-27T23:16:25.969Z,1.30
2024-02-27T23:18:54.201Z,1.40
2024-02-27T23:21:22.324Z,1.30
2024-02-27T23:23:50.442Z,1.30
2024-02-27T23:26:18.601Z,1.20
2024-02-27T23:28:47.091Z,1.20
2024-02-27T23:31:15.137Z,1.20
2024-02-27T23:33:44.638Z,1.20
2024-02-27T23:36:13.359Z,1.20
2024-02-27T23:38:41.441Z,1.20
2024-02-27T23:41:11.516Z,1.10
2024-02-27T23:43:41.755Z,1.10
2024-02-27T23:46:13.910Z,1.10
2024-02-27T23:48:42.010Z,1.10
2024-02-27T23:51:12.231Z,1.10
2024-02-27T23:53:40.307Z,1.10
2024-02-27T23:56:08.414Z,1.10
2024-02-27T23:58:37.500Z,1.00
